createdAt,value
2023-04-08T00:00:59.160Z,30.46
2023-04-08T00:01:59.184Z,30.44
2023-04-08T00:02:59.224Z,30.44
2023-04-08T00:03:59.300Z,30.44
2023-04-08T00:04:59.179Z,30.40
2023-04-08T00:05:59.131Z,30.40
2023-04-08T00:06:59.130Z,30.40
2023-04-08T00:07:59.132Z,30.44
2023-04-08T00:08:59.132Z,30.41
2023-04-08T00:09:59.144Z,30.41
2023-04-08T00:10:59.140Z,30.39
2023-04-08T00:11:59.152Z,30.41
2023-04-08T00:12:59.152Z,30.40
2023-04-08T00:13:59.152Z,30.48
2023-04-08T00:14:59.158Z,30.47
2023-04-08T00:15:59.163Z,30.44
2023-04-08T00:16:59.202Z,30.41
2023-04-08T00:17:59.189Z,30.44
2023-04-08T00:18:59.176Z,30.46
2023-04-08T00:19:59.179Z,30.41
2023-04-08T00:20:59.178Z,30.48
2023-04-08T00:21:59.181Z,30.52
2023-04-08T00:22:59.199Z,30.48
2023-04-08T00:23:59.186Z,30.49
2023-04-08T00:24:59.198Z,30.51
2023-04-08T00:25:59.197Z,30.48
2023-04-08T00:26:59.207Z,30.47
2023-04-08T00:27:59.203Z,30.52
2023-04-08T00:28:59.212Z,30.51
2023-04-08T00:29:59.207Z,30.53
2023-04-08T00:30:59.249Z,30.49
2023-04-08T00:31:59.210Z,30.53
2023-04-08T00:32:59.321Z,30.53
2023-04-08T00:33:59.215Z,30.52
2023-04-08T00:34:59.226Z,30.56
2023-04-08T00:35:59.268Z,30.53
2023-04-08T00:36:59.255Z,30.53
2023-04-08T00:37:59.267Z,30.55
2023-04-08T00:38:59.286Z,30.51
2023-04-08T00:39:59.316Z,30.51
2023-04-08T00:40:59.321Z,30.52
2023-04-08T00:41:59.354Z,30.53
2023-04-08T00:42:59.365Z,30.55
2023-04-08T00:43:59.370Z,30.52
2023-04-08T00:44:59.386Z,30.56
2023-04-08T00:45:59.458Z,30.58
2023-04-08T00:46:59.429Z,30.55
2023-04-08T00:47:59.472Z,30.53
2023-04-08T00:48:59.457Z,30.56
2023-04-08T00:49:59.471Z,30.58
2023-04-08T00:50:59.496Z,30.55
2023-04-08T00:51:59.535Z,30.58
2023-04-08T00:52:59.518Z,30.59
2023-04-08T00:53:59.555Z,30.52
2023-04-08T00:54:59.567Z,30.58
2023-04-08T00:55:59.577Z,30.51
2023-04-08T00:56:59.616Z,30.57
2023-04-08T00:57:59.614Z,30.56
2023-04-08T00:58:59.637Z,30.55
2023-04-08T00:59:59.649Z,30.56
2023-04-08T01:00:59.677Z,30.60
2023-04-08T01:01:59.773Z,30.55
2023-04-08T01:02:59.810Z,30.56
2023-04-08T01:03:59.817Z,30.55
2023-04-08T01:04:59.747Z,30.55
2023-04-08T01:05:59.798Z,30.55
2023-04-08T01:06:59.806Z,30.56
2023-04-08T01:07:59.817Z,30.59
2023-04-08T01:08:59.841Z,30.62
2023-04-08T01:09:59.866Z,30.56
2023-04-08T01:10:59.887Z,30.63
2023-04-08T01:11:59.911Z,30.56
2023-04-08T01:12:59.950Z,30.59
2023-04-08T01:13:59.963Z,30.62
2023-04-08T01:14:59.982Z,30.57
2023-04-08T01:16:00.014Z,30.57
2023-04-08T01:17:00.021Z,30.62
2023-04-08T01:18:00.066Z,30.63
2023-04-08T01:19:00.107Z,30.67
2023-04-08T01:20:00.131Z,30.63
2023-04-08T01:21:00.117Z,30.60
2023-04-08T01:22:00.156Z,30.67
2023-04-08T01:23:00.160Z,30.63
2023-04-08T01:24:00.176Z,30.64
2023-04-08T01:25:00.222Z,30.63
2023-04-08T01:26:00.259Z,30.67
2023-04-08T01:27:00.265Z,30.65
2023-04-08T01:28:00.286Z,30.64
2023-04-08T01:29:00.302Z,30.67
2023-04-08T01:30:00.321Z,30.68
2023-04-08T01:31:00.367Z,30.65
2023-04-08T01:32:00.359Z,30.68
2023-04-08T01:33:00.428Z,30.72
2023-04-08T01:34:00.402Z,30.69
2023-04-08T01:35:00.423Z,30.72
2023-04-08T01:36:00.482Z,30.68
2023-04-08T01:37:00.474Z,30.71
2023-04-08T01:38:00.490Z,30.65
2023-04-08T01:39:00.506Z,30.67
2023-04-08T01:40:00.542Z,30.64
2023-04-08T01:41:00.547Z,30.67
2023-04-08T01:42:00.568Z,30.68
2023-04-08T01:43:00.602Z,30.60
2023-04-08T01:44:00.607Z,30.60
2023-04-08T01:45:00.633Z,30.63
2023-04-08T01:46:00.672Z,30.60
2023-04-08T01:47:00.765Z,30.64
2023-04-08T01:48:00.725Z,30.64
2023-04-08T01:49:00.729Z,30.61
2023-04-08T01:50:00.751Z,30.65
2023-04-08T01:51:00.777Z,30.63
2023-04-08T01:52:00.809Z,30.63
2023-04-08T01:53:00.825Z,30.64
2023-04-08T01:54:00.907Z,30.67
2023-04-08T01:55:00.876Z,30.71
2023-04-08T01:56:00.916Z,30.68
2023-04-08T01:57:00.930Z,30.68
2023-04-08T01:58:00.961Z,30.73
2023-04-08T01:59:00.983Z,30.73
2023-04-08T02:00:01.124Z,30.79
2023-04-08T02:01:01.034Z,30.75
2023-04-08T02:02:01.138Z,30.78
2023-04-08T02:03:01.297Z,30.78
2023-04-08T02:04:01.170Z,30.75
2023-04-08T02:05:01.131Z,30.79
2023-04-08T02:06:01.146Z,30.79
2023-04-08T02:07:01.162Z,30.79
2023-04-08T02:08:01.173Z,30.83
2023-04-08T02:09:01.201Z,30.84
2023-04-08T02:10:01.239Z,30.84
2023-04-08T02:11:01.271Z,30.87
2023-04-08T02:12:01.298Z,30.85
2023-04-08T02:13:01.331Z,30.85
2023-04-08T02:14:01.358Z,30.84
2023-04-08T02:15:01.365Z,30.90
2023-04-08T02:16:02.164Z,30.94
2023-04-08T02:17:01.410Z,30.87
2023-04-08T02:18:01.457Z,30.85
2023-04-08T02:19:01.468Z,30.92
2023-04-08T02:20:01.516Z,30.95
2023-04-08T02:21:01.530Z,30.99
2023-04-08T02:22:01.549Z,30.94
2023-04-08T02:23:01.578Z,30.91
2023-04-08T02:24:03.770Z,30.95
2023-04-08T02:25:01.642Z,30.94
2023-04-08T02:26:01.655Z,30.96
2023-04-08T02:27:01.671Z,30.96
2023-04-08T02:28:01.703Z,30.94
2023-04-08T02:29:01.715Z,30.94
2023-04-08T02:30:01.768Z,30.96
2023-04-08T02:31:01.758Z,30.97
2023-04-08T02:32:01.811Z,30.95
2023-04-08T02:33:01.873Z,30.92
2023-04-08T02:34:01.842Z,30.97
2023-04-08T02:35:01.871Z,30.97
2023-04-08T02:36:01.917Z,30.97
2023-04-08T02:37:01.907Z,31.00
2023-04-08T02:38:01.946Z,31.02
2023-04-08T02:39:01.955Z,30.99
2023-04-08T02:40:01.975Z,30.94
2023-04-08T02:41:02.018Z,31.02
2023-04-08T02:42:02.043Z,30.95
2023-04-08T02:43:02.075Z,31.03
2023-04-08T02:44:02.091Z,31.01
2023-04-08T02:45:02.119Z,31.03
2023-04-08T02:46:02.158Z,31.07
2023-04-08T02:47:02.171Z,31.01
2023-04-08T02:48:02.389Z,31.07
2023-04-08T02:49:02.228Z,31.08
2023-04-08T02:50:02.266Z,31.07
2023-04-08T02:51:02.307Z,31.02
2023-04-08T02:52:02.354Z,31.05
2023-04-08T02:53:02.372Z,31.07
2023-04-08T02:54:02.411Z,31.04
2023-04-08T02:55:02.451Z,31.07
2023-04-08T02:56:02.481Z,31.02
2023-04-08T02:57:02.495Z,31.02
2023-04-08T02:58:02.528Z,31.04
2023-04-08T02:59:02.555Z,31.08
2023-04-08T03:00:02.590Z,31.07
2023-04-08T03:01:02.648Z,31.08
2023-04-08T03:02:02.715Z,31.08
2023-04-08T03:03:02.817Z,31.13
2023-04-08T03:04:02.779Z,31.11
2023-04-08T03:05:02.767Z,31.09
2023-04-08T03:06:02.787Z,31.09
2023-04-08T03:07:02.826Z,31.08
2023-04-08T03:08:02.858Z,31.09
2023-04-08T03:09:02.890Z,31.12
2023-04-08T03:10:02.933Z,31.08
2023-04-08T03:11:02.960Z,31.13
2023-04-08T03:12:03.003Z,31.15
2023-04-08T03:13:03.052Z,31.12
2023-04-08T03:14:03.073Z,31.13
2023-04-08T03:15:03.100Z,31.16
2023-04-08T03:16:03.130Z,31.16
2023-04-08T03:17:03.288Z,31.16
2023-04-08T03:18:03.285Z,31.13
2023-04-08T03:19:03.238Z,31.16
2023-04-08T03:20:03.276Z,31.17
2023-04-08T03:21:03.323Z,31.20
2023-04-08T03:22:03.319Z,31.17
2023-04-08T03:23:03.360Z,31.15
2023-04-08T03:24:03.397Z,31.15
2023-04-08T03:25:03.424Z,31.17
2023-04-08T03:26:03.482Z,31.17
2023-04-08T03:27:03.484Z,31.17
2023-04-08T03:28:03.513Z,31.17
2023-04-08T03:29:03.543Z,31.17
2023-04-08T03:30:03.572Z,31.20
2023-04-08T03:31:03.607Z,31.23
2023-04-08T03:32:03.689Z,31.24
2023-04-08T03:33:05.142Z,31.18
2023-04-08T03:34:03.756Z,31.21
2023-04-08T03:35:03.806Z,31.24
2023-04-08T03:36:03.852Z,31.23
2023-04-08T03:37:03.871Z,31.21
2023-04-08T03:38:03.913Z,31.23
2023-04-08T03:39:03.962Z,31.23
2023-04-08T03:40:03.983Z,31.21
2023-04-08T03:41:04.020Z,31.27
2023-04-08T03:42:04.050Z,31.24
2023-04-08T03:43:04.095Z,31.29
2023-04-08T03:44:04.136Z,31.21
2023-04-08T03:45:04.185Z,31.23
2023-04-08T03:46:04.252Z,31.28
2023-04-08T03:47:04.236Z,31.25
2023-04-08T03:48:04.354Z,31.24
2023-04-08T03:49:04.324Z,31.25
2023-04-08T03:50:04.358Z,31.27
2023-04-08T03:51:04.401Z,31.31
2023-04-08T03:52:04.424Z,31.29
2023-04-08T03:53:04.459Z,31.31
2023-04-08T03:54:04.490Z,31.29
2023-04-08T03:55:04.527Z,31.29
2023-04-08T03:56:04.602Z,31.32
2023-04-08T03:57:04.597Z,31.31
2023-04-08T03:58:04.633Z,31.32
2023-04-08T03:59:04.666Z,31.29
2023-04-08T04:00:04.696Z,31.32
2023-04-08T04:01:04.753Z,31.32
2023-04-08T04:02:04.812Z,31.35
2023-04-08T04:03:04.896Z,31.32
2023-04-08T04:04:05.077Z,31.38
2023-04-08T04:05:04.923Z,31.32
2023-04-08T04:06:04.921Z,31.31
2023-04-08T04:07:04.954Z,31.39
2023-04-08T04:08:05.013Z,31.33
2023-04-08T04:09:05.046Z,31.36
2023-04-08T04:10:05.062Z,31.41
2023-04-08T04:11:05.106Z,31.38
2023-04-08T04:12:05.141Z,31.37
2023-04-08T04:13:05.179Z,31.38
2023-04-08T04:14:05.205Z,31.40
2023-04-08T04:15:05.256Z,31.44
2023-04-08T04:16:05.381Z,31.43
2023-04-08T04:17:05.332Z,31.43
2023-04-08T04:18:05.429Z,31.40
2023-04-08T04:19:05.496Z,31.36
2023-04-08T04:20:05.443Z,31.41
2023-04-08T04:21:05.474Z,31.43
2023-04-08T04:22:05.510Z,31.44
2023-04-08T04:23:05.561Z,31.41
2023-04-08T04:24:05.604Z,31.41
2023-04-08T04:25:05.633Z,31.45
2023-04-08T04:26:05.674Z,31.44
2023-04-08T04:27:05.709Z,31.45
2023-04-08T04:28:05.745Z,31.44
2023-04-08T04:29:05.778Z,31.47
2023-04-08T04:30:05.828Z,31.48
2023-04-08T04:31:05.870Z,31.44
2023-04-08T04:32:05.909Z,31.44
2023-04-08T04:33:06.010Z,31.48
2023-04-08T04:34:05.966Z,31.49
2023-04-08T04:35:06.013Z,31.49
2023-04-08T04:36:06.052Z,31.52
2023-04-08T04:37:06.096Z,31.56
2023-04-08T04:38:06.131Z,31.49
2023-04-08T04:39:06.192Z,31.59
2023-04-08T04:40:06.207Z,31.52
2023-04-08T04:41:06.244Z,31.53
2023-04-08T04:42:06.276Z,31.46
2023-04-08T04:43:06.324Z,31.52
2023-04-08T04:44:06.372Z,31.50
2023-04-08T04:45:06.405Z,31.52
2023-04-08T04:46:06.460Z,31.55
2023-04-08T04:47:06.493Z,31.56
2023-04-08T04:48:06.615Z,31.53
2023-04-08T04:49:06.570Z,31.53
2023-04-08T04:50:06.608Z,31.55
2023-04-08T04:51:06.659Z,31.52
2023-04-08T04:52:06.735Z,31.59
2023-04-08T04:53:06.731Z,31.55
2023-04-08T04:54:06.775Z,31.57
2023-04-08T04:55:06.818Z,31.56
2023-04-08T04:56:06.870Z,31.57
2023-04-08T04:57:06.890Z,31.53
2023-04-08T04:58:06.938Z,31.59
2023-04-08T04:59:06.983Z,31.60
2023-04-08T05:00:07.023Z,31.57
2023-04-08T05:01:07.070Z,31.58
2023-04-08T05:02:07.212Z,31.57
2023-04-08T05:03:07.360Z,31.61
2023-04-08T05:04:07.226Z,31.62
2023-04-08T05:05:07.347Z,31.60
2023-04-08T05:06:07.293Z,31.63
2023-04-08T05:07:07.330Z,31.67
2023-04-08T05:08:07.385Z,31.57
2023-04-08T05:09:07.435Z,31.61
2023-04-08T05:10:07.476Z,31.62
2023-04-08T05:11:07.510Z,31.64
2023-04-08T05:12:07.571Z,31.64
2023-04-08T05:13:07.609Z,31.64
2023-04-08T05:14:07.656Z,31.68
2023-04-08T05:15:07.697Z,31.63
2023-04-08T05:16:07.789Z,31.69
2023-04-08T05:17:07.780Z,31.68
2023-04-08T05:18:07.840Z,31.70
2023-04-08T05:19:07.953Z,31.69
2023-04-08T05:20:07.899Z,31.65
2023-04-08T05:21:07.941Z,31.71
2023-04-08T05:22:07.976Z,31.68
2023-04-08T05:23:08.024Z,31.68
2023-04-08T05:24:08.045Z,31.65
2023-04-08T05:25:08.091Z,31.69
2023-04-08T05:26:08.136Z,31.72
2023-04-08T05:27:08.180Z,31.69
2023-04-08T05:28:08.210Z,31.72
2023-04-08T05:29:08.252Z,31.73
2023-04-08T05:30:08.298Z,31.72
2023-04-08T05:31:08.355Z,31.69
2023-04-08T05:32:08.381Z,31.73
2023-04-08T05:33:08.490Z,31.75
2023-04-08T05:34:08.453Z,31.75
2023-04-08T05:35:08.497Z,31.72
2023-04-08T05:36:08.543Z,31.76
2023-04-08T05:37:08.584Z,31.75
2023-04-08T05:38:08.634Z,31.73
2023-04-08T05:39:08.684Z,31.77
2023-04-08T05:40:08.730Z,31.77
2023-04-08T05:41:08.764Z,31.74
2023-04-08T05:42:08.814Z,31.73
2023-04-08T05:43:08.853Z,31.76
2023-04-08T05:44:08.895Z,31.79
2023-04-08T05:45:08.956Z,31.77
2023-04-08T05:46:08.990Z,31.78
2023-04-08T05:47:09.053Z,31.76
2023-04-08T05:48:09.114Z,31.72
2023-04-08T05:49:09.129Z,31.81
2023-04-08T05:50:09.187Z,31.76
2023-04-08T05:51:09.226Z,31.76
2023-04-08T05:52:09.284Z,31.81
2023-04-08T05:53:09.381Z,31.80
2023-04-08T05:54:09.350Z,31.76
2023-04-08T05:55:09.412Z,31.76
2023-04-08T05:56:09.438Z,31.81
2023-04-08T05:57:10.604Z,31.82
2023-04-08T05:58:09.524Z,31.82
2023-04-08T05:59:09.583Z,31.81
2023-04-08T06:00:09.648Z,31.84
2023-04-08T06:01:09.659Z,31.81
2023-04-08T06:02:09.762Z,31.81
2023-04-08T06:03:10.053Z,31.82
2023-04-08T06:04:09.883Z,31.81
2023-04-08T06:05:09.854Z,31.84
2023-04-08T06:06:09.886Z,31.85
2023-04-08T06:07:09.918Z,31.89
2023-04-08T06:08:09.955Z,31.89
2023-04-08T06:09:10.004Z,31.89
2023-04-08T06:10:10.171Z,31.92
2023-04-08T06:11:10.078Z,31.90
2023-04-08T06:12:10.120Z,31.92
2023-04-08T06:13:10.166Z,31.92
2023-04-08T06:14:10.217Z,31.92
2023-04-08T06:15:10.260Z,31.90
2023-04-08T06:16:10.319Z,31.93
2023-04-08T06:17:10.345Z,31.94
2023-04-08T06:18:10.381Z,31.92
2023-04-08T06:19:10.432Z,31.92
2023-04-08T06:20:10.476Z,31.94
2023-04-08T06:21:10.805Z,31.97
2023-04-08T06:22:10.567Z,31.96
2023-04-08T06:23:10.612Z,31.98
2023-04-08T06:24:10.651Z,31.97
2023-04-08T06:25:10.739Z,31.97
2023-04-08T06:26:10.736Z,31.98
2023-04-08T06:27:10.788Z,31.96
2023-04-08T06:28:10.825Z,31.98
2023-04-08T06:29:10.877Z,32.01
2023-04-08T06:30:10.915Z,32.03
2023-04-08T06:31:10.971Z,31.99
2023-04-08T06:32:11.098Z,32.00
2023-04-08T06:33:11.064Z,32.03
2023-04-08T06:34:11.108Z,32.03
2023-04-08T06:35:11.289Z,31.99
2023-04-08T06:36:11.254Z,32.05
2023-04-08T06:37:11.241Z,32.03
2023-04-08T06:38:11.288Z,32.03
2023-04-08T06:39:11.337Z,32.05
2023-04-08T06:40:11.388Z,32.05
2023-04-08T06:41:11.426Z,32.05
2023-04-08T06:42:11.485Z,32.09
2023-04-08T06:43:11.524Z,32.05
2023-04-08T06:44:11.570Z,32.06
2023-04-08T06:45:11.605Z,32.03
2023-04-08T06:46:11.743Z,32.10
2023-04-08T06:47:11.700Z,32.05
2023-04-08T06:48:11.723Z,32.06
2023-04-08T06:49:11.792Z,32.06
2023-04-08T06:50:11.826Z,32.10
2023-04-08T06:51:11.871Z,32.10
2023-04-08T06:52:14.227Z,32.13
2023-04-08T06:53:11.929Z,32.08
2023-04-08T06:54:11.924Z,32.08
2023-04-08T06:55:11.932Z,32.12
2023-04-08T06:56:11.927Z,32.13
2023-04-08T06:57:11.923Z,32.14
2023-04-08T06:58:11.936Z,32.06
2023-04-08T06:59:11.949Z,32.13
2023-04-08T07:00:11.958Z,32.13
2023-04-08T07:01:11.999Z,32.14
2023-04-08T07:02:11.957Z,32.14
2023-04-08T07:03:12.007Z,32.15
2023-04-08T07:04:11.991Z,32.19
2023-04-08T07:05:11.958Z,32.20
2023-04-08T07:06:11.974Z,32.21
2023-04-08T07:07:11.963Z,32.20
2023-04-08T07:08:11.961Z,32.21
2023-04-08T07:09:11.969Z,32.24
2023-04-08T07:10:11.963Z,32.20
2023-04-08T07:11:11.960Z,32.21
2023-04-08T07:12:11.961Z,32.20
2023-04-08T07:13:11.961Z,32.21
2023-04-08T07:14:11.956Z,32.21
2023-04-08T07:15:11.962Z,32.24
2023-04-08T07:16:12.045Z,32.26
2023-04-08T07:17:12.246Z,32.20
2023-04-08T07:18:11.951Z,32.24
2023-04-08T07:19:11.947Z,32.24
2023-04-08T07:20:11.964Z,32.22
2023-04-08T07:21:11.955Z,32.19
2023-04-08T07:22:11.959Z,32.28
2023-04-08T07:23:11.967Z,32.26
2023-04-08T07:24:11.968Z,32.21
2023-04-08T07:25:11.989Z,32.29
2023-04-08T07:26:11.975Z,32.24
2023-04-08T07:27:11.985Z,32.30
2023-04-08T07:28:11.983Z,32.28
2023-04-08T07:29:11.986Z,32.26
2023-04-08T07:30:11.987Z,32.29
2023-04-08T07:31:12.037Z,32.27
2023-04-08T07:32:11.998Z,32.29
2023-04-08T07:33:12.000Z,32.30
2023-04-08T07:34:11.983Z,32.30
2023-04-08T07:35:12.011Z,32.32
2023-04-08T07:36:11.984Z,32.30
2023-04-08T07:37:11.984Z,32.30
2023-04-08T07:38:12.019Z,32.34
2023-04-08T07:39:11.996Z,32.32
2023-04-08T07:40:11.991Z,32.35
2023-04-08T07:41:11.998Z,32.36
2023-04-08T07:42:12.016Z,32.32
2023-04-08T07:43:12.017Z,32.34
2023-04-08T07:44:12.012Z,32.33
2023-04-08T07:45:12.049Z,32.36
2023-04-08T07:46:12.100Z,32.36
2023-04-08T07:47:12.029Z,32.34
2023-04-08T07:48:12.123Z,32.34
2023-04-08T07:49:12.090Z,32.41
2023-04-08T07:50:12.237Z,32.34
2023-04-08T07:51:12.197Z,32.33
2023-04-08T07:52:12.233Z,32.38
2023-04-08T07:53:12.269Z,32.32
2023-04-08T07:54:12.341Z,32.37
2023-04-08T07:55:12.363Z,32.35
2023-04-08T07:56:12.428Z,32.40
2023-04-08T07:57:12.471Z,32.40
2023-04-08T07:58:12.525Z,32.37
2023-04-08T07:59:12.564Z,32.37
2023-04-08T08:00:12.612Z,32.41
2023-04-08T08:01:12.665Z,32.41
2023-04-08T08:02:12.895Z,32.37
2023-04-08T08:03:12.928Z,32.40
2023-04-08T08:04:12.901Z,32.40
2023-04-08T08:05:12.897Z,32.41
2023-04-08T08:06:12.869Z,32.41
2023-04-08T08:07:12.918Z,32.41
2023-04-08T08:08:12.976Z,32.43
2023-04-08T08:09:13.002Z,32.40
2023-04-08T08:10:13.070Z,32.45
2023-04-08T08:11:13.110Z,32.43
2023-04-08T08:12:13.135Z,32.46
2023-04-08T08:13:13.174Z,32.45
2023-04-08T08:14:13.211Z,32.41
2023-04-08T08:15:13.260Z,32.46
2023-04-08T08:16:13.298Z,32.43
2023-04-08T08:17:13.330Z,32.46
2023-04-08T08:18:13.363Z,32.45
2023-04-08T08:19:13.413Z,32.42
2023-04-08T08:20:13.453Z,32.41
2023-04-08T08:21:13.485Z,32.42
2023-04-08T08:22:13.523Z,32.42
2023-04-08T08:23:13.564Z,32.46
2023-04-08T08:24:13.612Z,32.43
2023-04-08T08:25:13.638Z,32.43
2023-04-08T08:26:13.677Z,32.46
2023-04-08T08:27:13.732Z,32.41
2023-04-08T08:28:13.753Z,32.45
2023-04-08T08:29:13.800Z,32.44
2023-04-08T08:30:13.828Z,32.45
2023-04-08T08:31:13.916Z,32.43
2023-04-08T08:32:13.889Z,32.42
2023-04-08T08:33:13.947Z,32.38
2023-04-08T08:34:13.981Z,32.37
2023-04-08T08:35:14.014Z,32.37
2023-04-08T08:36:14.122Z,32.45
2023-04-08T08:37:14.095Z,32.43
2023-04-08T08:38:14.126Z,32.43
2023-04-08T08:39:14.166Z,32.45
2023-04-08T08:40:14.187Z,32.48
2023-04-08T08:41:14.226Z,32.51
2023-04-08T08:42:14.267Z,32.50
2023-04-08T08:43:14.310Z,32.48
2023-04-08T08:44:14.339Z,32.49
2023-04-08T08:45:14.375Z,32.49
2023-04-08T08:46:14.444Z,32.57
2023-04-08T08:47:14.485Z,32.51
2023-04-08T08:48:14.468Z,32.57
2023-04-08T08:49:14.504Z,32.56
2023-04-08T08:50:14.532Z,32.54
2023-04-08T08:51:14.564Z,32.61
2023-04-08T08:52:14.602Z,32.59
2023-04-08T08:53:14.634Z,32.60
2023-04-08T08:54:14.660Z,32.54
2023-04-08T08:55:31.507Z,32.57
2023-04-08T08:56:17.803Z,32.55
2023-04-08T08:57:14.685Z,32.61
2023-04-08T08:58:14.685Z,32.65
2023-04-08T08:59:14.695Z,32.58
2023-04-08T09:00:14.698Z,32.62
2023-04-08T09:01:14.684Z,32.67
2023-04-08T09:02:14.808Z,32.59
2023-04-08T09:03:14.923Z,32.67
2023-04-08T09:04:14.837Z,32.68
2023-04-08T09:05:14.826Z,32.67
2023-04-08T09:06:14.661Z,32.61
2023-04-08T09:07:14.657Z,32.70
2023-04-08T09:08:14.659Z,32.67
2023-04-08T09:09:14.646Z,32.69
2023-04-08T09:10:14.636Z,32.69
2023-04-08T09:11:14.660Z,32.70
2023-04-08T09:12:15.648Z,32.70
2023-04-08T09:13:14.644Z,32.72
2023-04-08T09:14:14.641Z,32.73
2023-04-08T09:15:14.631Z,32.72
2023-04-08T09:16:14.653Z,32.71
2023-04-08T09:17:14.640Z,32.73
2023-04-08T09:18:15.986Z,32.70
2023-04-08T09:19:14.618Z,32.77
2023-04-08T09:20:14.605Z,32.83
2023-04-08T09:21:14.607Z,32.77
2023-04-08T09:22:14.589Z,32.79
2023-04-08T09:23:14.594Z,32.81
2023-04-08T09:24:15.899Z,32.79
2023-04-08T09:25:14.576Z,32.80
2023-04-08T09:26:14.608Z,32.83
2023-04-08T09:27:14.569Z,32.89
2023-04-08T09:28:14.564Z,32.89
2023-04-08T09:29:25.618Z,32.86
2023-04-08T09:30:15.547Z,32.87
2023-04-08T09:31:14.560Z,32.84
2023-04-08T09:32:14.543Z,32.89
2023-04-08T09:33:14.549Z,32.80
2023-04-08T09:34:14.544Z,32.79
2023-04-08T09:35:14.543Z,32.81
2023-04-08T09:36:14.541Z,32.73
2023-04-08T09:37:14.547Z,32.76
2023-04-08T09:38:14.556Z,32.77
2023-04-08T09:39:14.552Z,32.80
2023-04-08T09:40:14.552Z,32.84
2023-04-08T09:41:14.554Z,32.79
2023-04-08T09:42:14.548Z,32.84
2023-04-08T09:43:14.549Z,32.84
2023-04-08T09:44:14.542Z,32.90
2023-04-08T09:45:14.550Z,32.76
2023-04-08T09:46:14.648Z,32.88
2023-04-08T09:47:14.539Z,32.86
2023-04-08T09:48:16.327Z,32.87
2023-04-08T09:49:14.528Z,32.94
2023-04-08T09:50:14.532Z,32.89
2023-04-08T09:51:14.518Z,32.94
2023-04-08T09:52:14.539Z,32.95
2023-04-08T09:53:14.531Z,32.97
2023-04-08T09:54:14.526Z,32.96
2023-04-08T09:55:14.520Z,32.93
2023-04-08T09:56:14.541Z,33.00
2023-04-08T09:57:14.521Z,33.05
2023-04-08T09:58:14.515Z,33.01
2023-04-08T09:59:14.509Z,33.09
2023-04-08T10:00:14.540Z,33.04
2023-04-08T10:01:14.530Z,33.02
2023-04-08T10:02:14.561Z,33.04
2023-04-08T10:03:14.726Z,33.04
2023-04-08T10:04:14.616Z,33.06
2023-04-08T10:05:14.606Z,33.09
2023-04-08T10:06:14.489Z,33.06
2023-04-08T10:07:14.488Z,33.10
2023-04-08T10:08:14.485Z,33.04
2023-04-08T10:09:14.545Z,33.08
2023-04-08T10:10:14.498Z,33.15
2023-04-08T10:11:14.480Z,33.04
2023-04-08T10:12:14.477Z,33.06
2023-04-08T10:13:14.482Z,33.12
2023-04-08T10:14:14.484Z,33.05
2023-04-08T10:15:14.475Z,33.08
2023-04-08T10:16:14.489Z,33.10
2023-04-08T10:17:14.468Z,33.08
2023-04-08T10:18:14.460Z,33.09
2023-04-08T10:19:14.441Z,33.03
2023-04-08T10:20:14.448Z,33.10
2023-04-08T10:21:14.434Z,33.11
2023-04-08T10:22:14.429Z,33.13
2023-04-08T10:23:14.423Z,33.10
2023-04-08T10:24:14.421Z,33.11
2023-04-08T10:25:14.438Z,33.07
2023-04-08T10:26:14.418Z,33.09
2023-04-08T10:27:14.429Z,33.06
2023-04-08T10:28:14.437Z,33.03
2023-04-08T10:29:14.437Z,33.02
2023-04-08T10:30:14.418Z,33.01
2023-04-08T10:31:14.417Z,33.02
2023-04-08T10:32:14.477Z,33.04
2023-04-08T10:33:14.438Z,33.03
2023-04-08T10:34:14.427Z,33.08
2023-04-08T10:35:14.422Z,33.07
2023-04-08T10:36:14.430Z,33.09
2023-04-08T10:37:14.428Z,33.09
2023-04-08T10:38:14.444Z,33.07
2023-04-08T10:39:14.435Z,33.06
2023-04-08T10:40:14.438Z,33.11
2023-04-08T10:41:14.589Z,33.11
2023-04-08T10:42:14.454Z,33.16
2023-04-08T10:43:14.432Z,33.14
2023-04-08T10:44:14.443Z,33.17
2023-04-08T10:45:14.441Z,33.14
2023-04-08T10:46:14.481Z,33.17
2023-04-08T10:47:14.461Z,33.16
2023-04-08T10:48:14.453Z,33.22
2023-04-08T10:49:14.451Z,33.18
2023-04-08T10:50:14.445Z,33.18
2023-04-08T10:51:14.466Z,33.21
2023-04-08T10:52:14.437Z,33.22
2023-04-08T10:53:14.439Z,33.24
2023-04-08T10:54:14.445Z,33.24
2023-04-08T10:55:14.431Z,33.22
2023-04-08T10:56:14.418Z,33.16
2023-04-08T10:57:14.418Z,33.19
2023-04-08T10:58:14.423Z,33.27
2023-04-08T10:59:14.431Z,33.20
2023-04-08T11:00:14.424Z,33.18
2023-04-08T11:01:14.541Z,33.19
2023-04-08T11:02:14.587Z,33.20
2023-04-08T11:03:15.756Z,33.23
2023-04-08T11:04:14.524Z,33.19
2023-04-08T11:05:14.426Z,33.24
2023-04-08T11:06:14.415Z,33.18
2023-04-08T11:07:14.415Z,33.29
2023-04-08T11:08:14.419Z,33.30
2023-04-08T11:09:14.434Z,33.30
2023-04-08T11:10:14.450Z,33.29
2023-04-08T11:11:14.428Z,33.34
2023-04-08T11:12:14.435Z,33.33
2023-04-08T11:13:14.452Z,33.35
2023-04-08T11:14:14.448Z,33.33
2023-04-08T11:15:14.443Z,33.35
2023-04-08T11:16:18.201Z,33.35
2023-04-08T11:17:14.453Z,33.34
2023-04-08T11:18:14.445Z,33.38
2023-04-08T11:19:14.437Z,33.36
2023-04-08T11:20:14.486Z,33.28
2023-04-08T11:21:14.418Z,33.31
2023-04-08T11:22:14.426Z,33.35
2023-04-08T11:23:14.405Z,33.38
2023-04-08T11:24:14.416Z,33.40
2023-04-08T11:25:14.383Z,33.40
2023-04-08T11:26:14.376Z,33.35
2023-04-08T11:27:14.355Z,33.36
2023-04-08T11:28:14.360Z,33.36
2023-04-08T11:29:14.360Z,33.34
2023-04-08T11:30:14.356Z,33.38
2023-04-08T11:31:14.384Z,33.34
2023-04-08T11:32:14.285Z,33.33
2023-04-08T11:33:14.289Z,33.35
2023-04-08T11:34:14.270Z,33.35
2023-04-08T11:35:14.264Z,33.33
2023-04-08T11:36:14.324Z,33.34
2023-04-08T11:37:14.239Z,33.37
2023-04-08T11:38:14.268Z,33.35
2023-04-08T11:39:14.223Z,33.34
2023-04-08T11:40:14.206Z,33.39
2023-04-08T11:41:14.208Z,33.38
2023-04-08T11:42:14.192Z,33.40
2023-04-08T11:43:14.195Z,33.38
2023-04-08T11:44:14.177Z,33.38
2023-04-08T11:45:14.170Z,33.39
2023-04-08T11:46:14.214Z,33.43
2023-04-08T11:47:14.158Z,33.41
2023-04-08T11:48:14.225Z,33.40
2023-04-08T11:49:14.152Z,33.41
2023-04-08T11:50:14.185Z,33.43
2023-04-08T11:51:14.146Z,33.36
2023-04-08T11:52:14.153Z,33.40
2023-04-08T11:53:14.133Z,33.34
2023-04-08T11:54:14.129Z,33.35
2023-04-08T11:55:14.129Z,33.39
2023-04-08T11:56:14.127Z,33.40
2023-04-08T11:57:14.128Z,33.39
2023-04-08T11:58:14.133Z,33.39
2023-04-08T11:59:14.161Z,33.41
2023-04-08T12:00:14.117Z,33.44
2023-04-08T12:01:14.118Z,33.35
2023-04-08T12:02:14.121Z,33.35
2023-04-08T12:03:14.180Z,33.32
2023-04-08T12:04:14.232Z,33.28
2023-04-08T12:05:14.270Z,33.35
2023-04-08T12:06:14.086Z,33.30
2023-04-08T12:07:14.093Z,33.33
2023-04-08T12:08:14.083Z,33.32
2023-04-08T12:09:14.078Z,33.33
2023-04-08T12:10:14.081Z,33.25
2023-04-08T12:11:19.555Z,33.27
2023-04-08T12:12:15.093Z,33.27
2023-04-08T12:13:14.082Z,33.34
2023-04-08T12:14:14.075Z,33.28
2023-04-08T12:15:14.088Z,33.30
2023-04-08T12:16:14.110Z,33.25
2023-04-08T12:17:14.092Z,33.28
2023-04-08T12:18:14.065Z,33.22
2023-04-08T12:19:14.058Z,33.30
2023-04-08T12:20:14.051Z,33.23
2023-04-08T12:21:14.071Z,33.28
2023-04-08T12:22:14.049Z,33.33
2023-04-08T12:23:14.045Z,33.27
2023-04-08T12:24:14.043Z,33.25
2023-04-08T12:25:14.031Z,33.27
2023-04-08T12:26:14.018Z,33.28
2023-04-08T12:27:14.008Z,33.28
2023-04-08T12:28:13.999Z,33.32
2023-04-08T12:29:13.987Z,33.23
2023-04-08T12:30:15.311Z,33.28
2023-04-08T12:31:14.023Z,33.35
2023-04-08T12:32:13.972Z,33.34
2023-04-08T12:33:13.966Z,33.26
2023-04-08T12:34:13.950Z,33.35
2023-04-08T12:35:13.941Z,33.33
2023-04-08T12:36:14.007Z,33.26
2023-04-08T12:37:13.936Z,33.35
2023-04-08T12:38:13.920Z,33.30
2023-04-08T12:39:13.912Z,33.29
2023-04-08T12:40:13.919Z,33.31
2023-04-08T12:41:13.922Z,33.29
2023-04-08T12:42:13.921Z,33.29
2023-04-08T12:43:13.939Z,33.27
2023-04-08T12:44:13.951Z,33.27
2023-04-08T12:45:13.978Z,33.28
2023-04-08T12:46:13.984Z,33.29
2023-04-08T12:47:14.014Z,33.32
2023-04-08T12:48:13.995Z,33.33
2023-04-08T12:49:13.976Z,33.33
2023-04-08T12:50:13.968Z,33.33
2023-04-08T12:51:13.969Z,33.38
2023-04-08T12:52:13.968Z,33.35
2023-04-08T12:53:13.976Z,33.32